<?xml version="1.0" encoding="UTF-8" standalone="no" ?>
<gpx xmlns="http://www.topografix.com/GPX/1/1" xmlns:xsi="http://www.w3.org/2001/XMLSchema-instance" xsi:schemaLocation="http://www.topografix.com/GPX/1/1 http://www.topografix.com/GPX/1/1/gpx.xsd" version="1.1" creator="VisuGPX - https://www.visugpx.com">
  <metadata>
    <name>Rando Vosges petit ballon - 3jours revisité</name>
  </metadata>
  <trk>
    <name><![CDATA[Rando Vosges petit ballon - 3jours revisité_1]]></name>
    <trkseg>
      <trkpt lat="48.08683" lon="7.06301">
        <ele>1062.6</ele>
        <time>2021-09-26T17:38:58Z</time>
      </trkpt>
      <trkpt lat="48.08604" lon="7.0637">
        <ele>1052</ele>
        <time>2021-09-26T17:41:00Z</time>
      </trkpt>
      <trkpt lat="48.08591" lon="7.06234">
        <ele>1064</ele>
        <time>2021-09-26T17:43:03Z</time>
      </trkpt>
      <trkpt lat="48.08544" lon="7.0612">
        <ele>1068</ele>
        <time>2021-09-26T17:45:02Z</time>
      </trkpt>
      <trkpt lat="48.08504" lon="7.06005">
        <ele>1075</ele>
        <time>2021-09-26T17:46:58Z</time>
      </trkpt>
      <trkpt lat="48.08408" lon="7.06013">
        <ele>1069</ele>
        <time>2021-09-26T17:49:06Z</time>
      </trkpt>
      <trkpt lat="48.08365" lon="7.05869">
        <ele>1076</ele>
        <time>2021-09-26T17:51:27Z</time>
      </trkpt>
      <trkpt lat="48.08297" lon="7.05844">
        <ele>1071</ele>
        <time>2021-09-26T17:53:00Z</time>
      </trkpt>
      <trkpt lat="48.0824" lon="7.0575">
        <ele>1101</ele>
        <time>2021-09-26T17:54:54Z</time>
      </trkpt>
      <trkpt lat="48.08126" lon="7.05713">
        <ele>1122</ele>
        <time>2021-09-26T17:57:29Z</time>
      </trkpt>
      <trkpt lat="48.08067" lon="7.05816">
        <ele>1115</ele>
        <time>2021-09-26T17:59:30Z</time>
      </trkpt>
      <trkpt lat="48.08015" lon="7.05822">
        <ele>1126</ele>
        <time>2021-09-26T18:00:40Z</time>
      </trkpt>
      <trkpt lat="48.07938" lon="7.05749">
        <ele>1132</ele>
        <time>2021-09-26T18:02:41Z</time>
      </trkpt>
      <trkpt lat="48.07824" lon="7.0518">
        <ele>1178</ele>
        <time>2021-09-26T18:11:31Z</time>
      </trkpt>
      <trkpt lat="48.07643" lon="7.04899">
        <ele>1162</ele>
        <time>2021-09-26T18:17:19Z</time>
      </trkpt>
      <trkpt lat="48.07607" lon="7.04635">
        <ele>1149</ele>
        <time>2021-09-26T18:21:19Z</time>
      </trkpt>
      <trkpt lat="48.07653" lon="7.04272">
        <ele>1145</ele>
        <time>2021-09-26T18:26:49Z</time>
      </trkpt>
      <trkpt lat="48.07549" lon="7.04146">
        <ele>1118</ele>
        <time>2021-09-26T18:29:47Z</time>
      </trkpt>
      <trkpt lat="48.07412" lon="7.04121">
        <ele>1105</ele>
        <time>2021-09-26T18:32:51Z</time>
      </trkpt>
      <trkpt lat="48.07223" lon="7.03947">
        <ele>1105</ele>
        <time>2021-09-26T18:37:47Z</time>
      </trkpt>
      <trkpt lat="48.07172" lon="7.03861">
        <ele>1101</ele>
        <time>2021-09-26T18:39:30Z</time>
      </trkpt>
      <trkpt lat="48.07201" lon="7.03716">
        <ele>1114</ele>
        <time>2021-09-26T18:41:45Z</time>
      </trkpt>
      <trkpt lat="48.07246" lon="7.03538">
        <ele>1133</ele>
        <time>2021-09-26T18:44:35Z</time>
      </trkpt>
      <trkpt lat="48.07239" lon="7.03368">
        <ele>1141</ele>
        <time>2021-09-26T18:47:07Z</time>
      </trkpt>
      <trkpt lat="48.07226" lon="7.03286">
        <ele>1157</ele>
        <time>2021-09-26T18:48:22Z</time>
      </trkpt>
      <trkpt lat="48.07199" lon="7.0325">
        <ele>1162</ele>
        <time>2021-09-26T18:49:10Z</time>
      </trkpt>
      <trkpt lat="48.07175" lon="7.03241">
        <ele>1162</ele>
        <time>2021-09-26T18:49:43Z</time>
      </trkpt>
      <trkpt lat="48.07144" lon="7.03231">
        <ele>1167</ele>
        <time>2021-09-26T18:50:25Z</time>
      </trkpt>
      <trkpt lat="48.07051" lon="7.03208">
        <ele>1182</ele>
        <time>2021-09-26T18:52:31Z</time>
      </trkpt>
      <trkpt lat="48.07027" lon="7.03309">
        <ele>1163</ele>
        <time>2021-09-26T18:54:07Z</time>
      </trkpt>
      <trkpt lat="48.06996" lon="7.03404">
        <ele>1135</ele>
        <time>2021-09-26T18:55:41Z</time>
      </trkpt>
      <trkpt lat="48.0687" lon="7.03244">
        <ele>1173</ele>
        <time>2021-09-26T18:59:21Z</time>
      </trkpt>
      <trkpt lat="48.06787" lon="7.03262">
        <ele>1151</ele>
        <time>2021-09-26T19:01:13Z</time>
      </trkpt>
      <trkpt lat="48.06729" lon="7.0334">
        <ele>1130</ele>
        <time>2021-09-26T19:02:57Z</time>
      </trkpt>
      <trkpt lat="48.06651" lon="7.03403">
        <ele>1123</ele>
        <time>2021-09-26T19:04:56Z</time>
      </trkpt>
      <trkpt lat="48.06596" lon="7.03469">
        <ele>1127</ele>
        <time>2021-09-26T19:06:30Z</time>
      </trkpt>
      <trkpt lat="48.06557" lon="7.03603">
        <ele>1121</ele>
        <time>2021-09-26T19:08:40Z</time>
      </trkpt>
      <trkpt lat="48.0648" lon="7.03618">
        <ele>1131</ele>
        <time>2021-09-26T19:10:24Z</time>
      </trkpt>
      <trkpt lat="48.06522" lon="7.0349">
        <ele>1146</ele>
        <time>2021-09-26T19:12:31Z</time>
      </trkpt>
      <trkpt lat="48.06611" lon="7.03276">
        <ele>1170</ele>
        <time>2021-09-26T19:16:16Z</time>
      </trkpt>
      <trkpt lat="48.06495" lon="7.03371">
        <ele>1171</ele>
        <time>2021-09-26T19:19:12Z</time>
      </trkpt>
      <trkpt lat="48.06495" lon="7.03294">
        <ele>1185</ele>
        <time>2021-09-26T19:20:21Z</time>
      </trkpt>
      <trkpt lat="48.06452" lon="7.03245">
        <ele>1167</ele>
        <time>2021-09-26T19:21:33Z</time>
      </trkpt>
      <trkpt lat="48.06496" lon="7.03171">
        <ele>1200</ele>
        <time>2021-09-26T19:23:01Z</time>
      </trkpt>
      <trkpt lat="48.06574" lon="7.03187">
        <ele>1206</ele>
        <time>2021-09-26T19:24:46Z</time>
      </trkpt>
      <trkpt lat="48.06521" lon="7.03113">
        <ele>1211</ele>
        <time>2021-09-26T19:26:23Z</time>
      </trkpt>
      <trkpt lat="48.06579" lon="7.02802">
        <ele>1229</ele>
        <time>2021-09-26T19:31:11Z</time>
      </trkpt>
      <trkpt lat="48.0641" lon="7.02373">
        <ele>1149</ele>
        <time>2021-09-26T19:38:35Z</time>
      </trkpt>
      <trkpt lat="48.06402" lon="7.02354">
        <ele>1147.6</ele>
      </trkpt>
      <trkpt lat="48.06386" lon="7.02379">
        <ele>1148.5</ele>
      </trkpt>
      <trkpt lat="48.06366" lon="7.02382">
        <ele>1147.7</ele>
      </trkpt>
      <trkpt lat="48.06377" lon="7.02293">
        <ele>1144.2</ele>
      </trkpt>
      <trkpt lat="48.0636" lon="7.02292">
        <ele>1144.9</ele>
      </trkpt>
      <trkpt lat="48.06345" lon="7.02304">
        <ele>1146.2</ele>
      </trkpt>
      <trkpt lat="48.06324" lon="7.02353">
        <ele>1149</ele>
      </trkpt>
      <trkpt lat="48.06305" lon="7.02319">
        <ele>1152.6</ele>
      </trkpt>
      <trkpt lat="48.06285" lon="7.02332">
        <ele>1157.1</ele>
      </trkpt>
      <trkpt lat="48.06228" lon="7.02365">
        <ele>1166.1</ele>
      </trkpt>
      <trkpt lat="48.06194" lon="7.02404">
        <ele>1170.5</ele>
      </trkpt>
      <trkpt lat="48.06144" lon="7.02412">
        <ele>1179.7</ele>
      </trkpt>
      <trkpt lat="48.06101" lon="7.02418">
        <ele>1188.2</ele>
      </trkpt>
      <trkpt lat="48.06049" lon="7.02396">
        <ele>1192.9</ele>
      </trkpt>
      <trkpt lat="48.05996" lon="7.0237">
        <ele>1196.1</ele>
      </trkpt>
      <trkpt lat="48.05927" lon="7.02349">
        <ele>1196.7</ele>
      </trkpt>
      <trkpt lat="48.05857" lon="7.02308">
        <ele>1207.1</ele>
      </trkpt>
      <trkpt lat="48.05799" lon="7.02303">
        <ele>1217.4</ele>
      </trkpt>
      <trkpt lat="48.05738" lon="7.02382">
        <ele>1223.2</ele>
      </trkpt>
      <trkpt lat="48.05657" lon="7.02427">
        <ele>1236.8</ele>
      </trkpt>
      <trkpt lat="48.0561" lon="7.02398">
        <ele>1241.9</ele>
      </trkpt>
      <trkpt lat="48.05528" lon="7.02306">
        <ele>1240</ele>
      </trkpt>
      <trkpt lat="48.05474" lon="7.02239">
        <ele>1241.6</ele>
      </trkpt>
      <trkpt lat="48.05227" lon="7.02021">
        <ele>1231.2</ele>
      </trkpt>
      <trkpt lat="48.05186" lon="7.01972">
        <ele>1229.6</ele>
      </trkpt>
      <trkpt lat="48.05166" lon="7.01926">
        <ele>1227.6</ele>
      </trkpt>
      <trkpt lat="48.05185" lon="7.01611">
        <ele>1235.6</ele>
      </trkpt>
      <trkpt lat="48.04979" lon="7.01544">
        <ele>1244.1</ele>
      </trkpt>
      <trkpt lat="48.04774" lon="7.0141">
        <ele>1264.7</ele>
      </trkpt>
      <trkpt lat="48.04772" lon="7.01466">
        <ele>1263.5</ele>
      </trkpt>
      <trkpt lat="48.04724" lon="7.01525">
        <ele>1256.4</ele>
      </trkpt>
      <trkpt lat="48.04707" lon="7.01543">
        <ele>1250.1</ele>
      </trkpt>
      <trkpt lat="48.04706" lon="7.01566">
        <ele>1244.7</ele>
      </trkpt>
      <trkpt lat="48.04701" lon="7.01536">
        <ele>1250.5</ele>
      </trkpt>
      <trkpt lat="48.04689" lon="7.01511">
        <ele>1254.8</ele>
      </trkpt>
      <trkpt lat="48.04672" lon="7.0146">
        <ele>1262.4</ele>
      </trkpt>
      <trkpt lat="48.04631" lon="7.01422">
        <ele>1258.3</ele>
      </trkpt>
      <trkpt lat="48.04594" lon="7.01397">
        <ele>1254.8</ele>
      </trkpt>
      <trkpt lat="48.0452" lon="7.01293">
        <ele>1266.7</ele>
      </trkpt>
      <trkpt lat="48.04441" lon="7.01235">
        <ele>1275.8</ele>
      </trkpt>
      <trkpt lat="48.04422" lon="7.01206">
        <ele>1280.8</ele>
      </trkpt>
      <trkpt lat="48.04361" lon="7.0119">
        <ele>1283.7</ele>
      </trkpt>
      <trkpt lat="48.04336" lon="7.01195">
        <ele>1281.4</ele>
      </trkpt>
      <trkpt lat="48.04247" lon="7.01144">
        <ele>1287.4</ele>
      </trkpt>
      <trkpt lat="48.04171" lon="7.01107">
        <ele>1290.9</ele>
      </trkpt>
      <trkpt lat="48.04132" lon="7.0109">
        <ele>1292.6</ele>
      </trkpt>
      <trkpt lat="48.04005" lon="7.01326">
        <ele>1323.5</ele>
      </trkpt>
      <trkpt lat="48.03749" lon="7.01614">
        <ele>1346.8</ele>
      </trkpt>
      <trkpt lat="48.03716" lon="7.01479">
        <ele>1323.2</ele>
      </trkpt>
      <trkpt lat="48.03695" lon="7.01425">
        <ele>1315.1</ele>
      </trkpt>
      <trkpt lat="48.03705" lon="7.01371">
        <ele>1319.7</ele>
      </trkpt>
      <trkpt lat="48.03679" lon="7.01363">
        <ele>1313.7</ele>
      </trkpt>
      <trkpt lat="48.03686" lon="7.01337">
        <ele>1316.9</ele>
      </trkpt>
      <trkpt lat="48.03673" lon="7.01332">
        <ele>1314.9</ele>
      </trkpt>
      <trkpt lat="48.03682" lon="7.01282">
        <ele>1313</ele>
      </trkpt>
      <trkpt lat="48.03649" lon="7.01272">
        <ele>1305.8</ele>
      </trkpt>
      <trkpt lat="48.03641" lon="7.01243">
        <ele>1304</ele>
      </trkpt>
      <trkpt lat="48.03591" lon="7.01256">
        <ele>1293.7</ele>
      </trkpt>
      <trkpt lat="48.03586" lon="7.01267">
        <ele>1288.8</ele>
      </trkpt>
      <trkpt lat="48.03555" lon="7.01241">
        <ele>1280.5</ele>
      </trkpt>
      <trkpt lat="48.03551" lon="7.01194">
        <ele>1281.1</ele>
      </trkpt>
      <trkpt lat="48.03561" lon="7.01137">
        <ele>1281.8</ele>
      </trkpt>
      <trkpt lat="48.03523" lon="7.0114">
        <ele>1275.3</ele>
      </trkpt>
      <trkpt lat="48.03492" lon="7.01083">
        <ele>1271.7</ele>
      </trkpt>
      <trkpt lat="48.03484" lon="7.01048">
        <ele>1271.9</ele>
      </trkpt>
      <trkpt lat="48.03286" lon="7.00903">
        <ele>1298.9</ele>
      </trkpt>
      <trkpt lat="48.03007" lon="7.00798">
        <ele>1281.7</ele>
      </trkpt>
      <trkpt lat="48.02898" lon="7.00713">
        <ele>1279.7</ele>
      </trkpt>
      <trkpt lat="48.02773" lon="7.00593">
        <ele>1286.4</ele>
      </trkpt>
      <trkpt lat="48.02699" lon="7.00407">
        <ele>1293.7</ele>
      </trkpt>
      <trkpt lat="48.02649" lon="7.00131">
        <ele>1292.3</ele>
      </trkpt>
      <trkpt lat="48.02598" lon="7.00039">
        <ele>1293.6</ele>
      </trkpt>
      <trkpt lat="48.02495" lon="6.99954">
        <ele>1299.6</ele>
      </trkpt>
      <trkpt lat="48.02379" lon="6.9974">
        <ele>1296.4</ele>
      </trkpt>
      <trkpt lat="48.02278" lon="6.99533">
        <ele>1289.7</ele>
      </trkpt>
      <trkpt lat="48.02111" lon="6.99353">
        <ele>1280.6</ele>
      </trkpt>
      <trkpt lat="48.02062" lon="6.99333">
        <ele>1275.9</ele>
      </trkpt>
      <trkpt lat="48.02005" lon="6.99183">
        <ele>1273.4</ele>
      </trkpt>
      <trkpt lat="48.01987" lon="6.99162">
        <ele>1271.6</ele>
      </trkpt>
      <trkpt lat="48.01954" lon="6.99047">
        <ele>1264</ele>
      </trkpt>
      <trkpt lat="48.01825" lon="6.98931">
        <ele>1234.2</ele>
      </trkpt>
      <trkpt lat="48.01734" lon="6.98837">
        <ele>1211.1</ele>
      </trkpt>
      <trkpt lat="48.01686" lon="6.98771">
        <ele>1208.5</ele>
      </trkpt>
      <trkpt lat="48.0161" lon="6.9864">
        <ele>1194.9</ele>
      </trkpt>
      <trkpt lat="48.01608" lon="6.98632">
        <ele>1194.1</ele>
      </trkpt>
      <trkpt lat="48.01583" lon="6.98628">
        <ele>1193.7</ele>
      </trkpt>
      <trkpt lat="48.01498" lon="6.98566">
        <ele>1186.9</ele>
      </trkpt>
      <trkpt lat="48.01479" lon="6.98561">
        <ele>1188.5</ele>
      </trkpt>
      <trkpt lat="48.01464" lon="6.98566">
        <ele>1190.5</ele>
      </trkpt>
      <trkpt lat="48.01409" lon="6.98552">
        <ele>1196.1</ele>
      </trkpt>
      <trkpt lat="48.01334" lon="6.98514">
        <ele>1208.6</ele>
      </trkpt>
      <trkpt lat="48.01191" lon="6.98376">
        <ele>1227</ele>
      </trkpt>
      <trkpt lat="48.01172" lon="6.98337">
        <ele>1234.5</ele>
      </trkpt>
      <trkpt lat="48.01147" lon="6.98364">
        <ele>1233.4</ele>
      </trkpt>
      <trkpt lat="48.01141" lon="6.98318">
        <ele>1242.6</ele>
      </trkpt>
      <trkpt lat="48.01118" lon="6.98332">
        <ele>1246.7</ele>
      </trkpt>
      <trkpt lat="48.01113" lon="6.98293">
        <ele>1252.6</ele>
      </trkpt>
      <trkpt lat="48.01096" lon="6.9831">
        <ele>1255.2</ele>
      </trkpt>
      <trkpt lat="48.01087" lon="6.98279">
        <ele>1263.2</ele>
      </trkpt>
      <trkpt lat="48.01067" lon="6.98289">
        <ele>1268.7</ele>
      </trkpt>
      <trkpt lat="48.01025" lon="6.98287">
        <ele>1284.8</ele>
      </trkpt>
      <trkpt lat="48.00943" lon="6.9819">
        <ele>1289.2</ele>
      </trkpt>
      <trkpt lat="48.00552" lon="6.98014">
        <ele>1204.9</ele>
      </trkpt>
      <trkpt lat="48.00025" lon="6.97981">
        <ele>1295.1</ele>
      </trkpt>
      <trkpt lat="47.99921" lon="6.9806">
        <ele>1294</ele>
      </trkpt>
      <trkpt lat="47.99764" lon="6.98047">
        <ele>1283.2</ele>
      </trkpt>
      <trkpt lat="47.99555" lon="6.98122">
        <ele>1275.2</ele>
      </trkpt>
      <trkpt lat="47.99237" lon="6.9807">
        <ele>1272.6</ele>
      </trkpt>
      <trkpt lat="47.98789" lon="6.98024">
        <ele>1238.1</ele>
      </trkpt>
      <trkpt lat="47.98545" lon="6.98018">
        <ele>1221.4</ele>
      </trkpt>
      <trkpt lat="47.9845" lon="6.98162">
        <ele>1213.2</ele>
      </trkpt>
      <trkpt lat="47.98397" lon="6.9821">
        <ele>1214.5</ele>
      </trkpt>
      <trkpt lat="47.98366" lon="6.98253">
        <ele>1216.9</ele>
      </trkpt>
      <trkpt lat="47.98341" lon="6.98298">
        <ele>1216.6</ele>
      </trkpt>
    </trkseg>
  </trk>
</gpx>